Accueil
METAR-TAF:

METAR-TAF

Aéroports :

Funchal, Madère, Portugal

Aéroport Cristiano-Ronaldo

latitude: 32-41-52N, longitude: 016-46-28W, altitude: 59 m

Observation

Le bulletin a été fait il y a 17 minutes, à 12:30 UTC
Vent 3 kt de direction variable
Température 23°C
Humidité 78%
Pression 1022 hPa
Visibilité 10 km ou plus
Nuages épars à une hauteur de 1500 ft

METAR: LPMA 181230Z VRB03KT 9999 SCT015 23/19 Q1022

Heure: 13:47 (12:47 UTC)

Prévision

Le bulletin a été fait il y a 1 heure et 47 minutes, à 11:00 UTC
Prévision valable du 18 à 12 UTC au 19 à 12 UTC
Vent 5 kt de direction variable
Visibilité 10 km ou plus
Quelques nuages à une hauteur de 1500 ft
Nuages épars à une hauteur de 3300 ft
Evoluant progressivement
du 18 à 18 UTC au 18 à 20 UTC
Vent 10 kt de nord/nord-ouest

TAF: LPMA 181100Z 1812/1912 VRB05KT 9999 FEW015 SCT033 BECMG 1818/1820 34010KT

Observations et prévisions météorologiques de plus de 4000 aéroports (messages METAR et TAF).

Les stations disponibles sont représentées par des disques jaunes et rouges sur la carte.

Passer la souris dessus pour voir le nom de la station.

Cliquer dessus pour voir les observations et prévisions météorologiques.

Pour changer de carte: cliquez sur les boutons verts avec une croix noire pour zoomer, sur le bouton vert avec un tiret pour effectuer un zoom arrière, ou sur les flèches vertes pour les cartes adjacentes.


METAR-TAF: